Time;durP1;ratioP1;P1;durP2;ratioP2;P2;SDS_P1;SDS_P2;PMS_P1;PMS_P2;Temp;Humidity;BMP_temperature;BMP_pressure;BME280_temperature;BME280_humidity;BME280_pressure;Samples;Min_cycle;Max_cycle;Signal;HPM_P1;HPM_P2
2022/03/05 00:01:20;;;;;;;;;;;18.80;57.60;;;;;;5011367;28;1318;-67
2022/03/05 00:03:45;;;;;;;;;;;18.80;57.60;;;;;;5006684;28;1277;-67
2022/03/05 00:06:11;;;;;;;;;;;18.80;57.70;;;;;;5001758;28;1300;-67
2022/03/05 00:08:36;;;;;;;;;;;18.70;57.60;;;;;;5003269;28;1272;-67
2022/03/05 00:11:02;;;;;;;;;;;18.70;57.70;;;;;;5002695;28;1264;-67
2022/03/05 00:13:27;;;;;;;;;;;18.70;57.70;;;;;;5002100;28;1229;-68
2022/03/05 00:15:53;;;;;;;;;;;18.70;57.70;;;;;;5003555;28;1245;-67
2022/03/05 00:18:18;;;;;;;;;;;18.70;57.70;;;;;;5002360;28;1906;-67
2022/03/05 00:20:44;;;;;;;;;;;18.70;57.70;;;;;;4992511;28;1214;-68
2022/03/05 00:23:10;;;;;;;;;;;18.70;57.70;;;;;;5003805;28;1331;-68
2022/03/05 00:25:36;;;;;;;;;;;18.70;57.70;;;;;;5001959;28;1288;-69
2022/03/05 00:28:02;;;;;;;;;;;18.70;57.70;;;;;;5002729;28;1332;-68
2022/03/05 00:30:27;;;;;;;;;;;18.70;57.80;;;;;;5010175;28;1289;-67
2022/03/05 00:32:53;;;;;;;;;;;18.70;57.80;;;;;;4998539;28;1225;-67
2022/03/05 00:35:18;;;;;;;;;;;18.70;57.80;;;;;;5012852;28;1161;-68
2022/03/05 00:37:44;;;;;;;;;;;18.70;57.80;;;;;;5012941;28;1902;-68
2022/03/05 00:40:09;;;;;;;;;;;18.70;57.80;;;;;;5012599;28;1325;-67
2022/03/05 00:42:35;;;;;;;;;;;18.70;57.90;;;;;;5013042;28;855;-67
2022/03/05 00:45:00;;;;;;;;;;;18.70;57.90;;;;;;4994894;28;1144;-68
2022/03/05 00:47:26;;;;;;;;;;;18.60;57.80;;;;;;4995325;28;852;-67
2022/03/05 00:49:52;;;;;;;;;;;18.60;57.80;;;;;;4995028;28;1228;-67
2022/03/05 00:52:18;;;;;;;;;;;18.60;57.80;;;;;;5012738;28;870;-67
2022/03/05 00:54:43;;;;;;;;;;;18.70;57.90;;;;;;4995391;28;1089;-67
2022/03/05 00:57:09;;;;;;;;;;;18.60;57.90;;;;;;4995265;28;887;-66
2022/03/05 00:59:34;;;;;;;;;;;18.60;57.90;;;;;;4994253;28;1957;-67
2022/03/05 01:02:00;;;;;;;;;;;18.60;57.90;;;;;;5012536;28;1183;-67
2022/03/05 01:04:25;;;;;;;;;;;18.70;58.00;;;;;;4995010;28;1325;-67
2022/03/05 01:06:51;;;;;;;;;;;18.60;57.90;;;;;;5012663;28;800;-67
2022/03/05 01:09:16;;;;;;;;;;;18.60;57.90;;;;;;5012155;28;1215;-67
2022/03/05 01:11:41;;;;;;;;;;;18.60;58.00;;;;;;5012552;28;854;-67
2022/03/05 01:14:10;;;;;;;;;;;18.60;58.00;;;;;;5029575;28;1180;-67
2022/03/05 01:16:35;;;;;;;;;;;18.60;58.00;;;;;;5035712;28;902;-68
2022/03/05 01:19:01;;;;;;;;;;;18.60;58.00;;;;;;5035496;28;1894;-67
2022/03/05 01:21:27;;;;;;;;;;;18.60;58.00;;;;;;5035580;28;1049;-67
2022/03/05 01:23:53;;;;;;;;;;;18.60;58.00;;;;;;5035956;28;823;-67
2022/03/05 01:26:18;;;;;;;;;;;18.60;58.00;;;;;;5017928;28;1022;-67
2022/03/05 01:28:44;;;;;;;;;;;18.60;58.00;;;;;;5034994;28;1132;-68
2022/03/05 01:31:09;;;;;;;;;;;18.60;58.00;;;;;;5035455;28;864;-68
2022/03/05 01:33:34;;;;;;;;;;;18.60;58.10;;;;;;5035906;28;714;-68
2022/03/05 01:36:00;;;;;;;;;;;18.60;58.10;;;;;;5018408;28;1342;-68
2022/03/05 01:38:28;;;;;;;;;;;18.50;58.00;;;;;;5015524;28;1895;-67
2022/03/05 01:40:53;;;;;;;;;;;18.60;58.10;;;;;;5015929;28;976;-67
2022/03/05 01:43:19;;;;;;;;;;;18.50;58.00;;;;;;5015236;28;799;-67
2022/03/05 01:45:44;;;;;;;;;;;18.50;58.10;;;;;;5015458;28;648;-68
2022/03/05 01:48:10;;;;;;;;;;;18.50;58.10;;;;;;5015386;28;715;-67
2022/03/05 01:50:35;;;;;;;;;;;18.50;58.10;;;;;;5015022;28;1292;-68
2022/03/05 01:53:00;;;;;;;;;;;18.60;58.10;;;;;;5015361;28;784;-68
2022/03/05 01:55:26;;;;;;;;;;;18.50;58.10;;;;;;4998048;28;883;-67
2022/03/05 01:57:51;;;;;;;;;;;18.50;58.10;;;;;;4996823;28;1902;-67
2022/03/05 02:00:17;;;;;;;;;;;18.50;58.10;;;;;;5014903;28;1223;-68
2022/03/05 02:02:42;;;;;;;;;;;18.50;58.10;;;;;;5015075;28;1235;-68
2022/03/05 02:05:09;;;;;;;;;;;18.50;58.20;;;;;;4997627;28;1014;-67
2022/03/05 02:07:34;;;;;;;;;;;18.50;58.20;;;;;;4997769;28;868;-67
2022/03/05 02:10:00;;;;;;;;;;;18.50;58.20;;;;;;4997154;28;1306;-68
2022/03/05 02:12:28;;;;;;;;;;;18.50;58.20;;;;;;5014747;28;1042;-68
2022/03/05 02:14:54;;;;;;;;;;;18.50;58.20;;;;;;5015224;28;797;-68
2022/03/05 02:17:19;;;;;;;;;;;18.50;58.20;;;;;;5014850;28;796;-67
2022/03/05 02:19:45;;;;;;;;;;;18.50;58.20;;;;;;4996893;28;1894;-67
2022/03/05 02:22:10;;;;;;;;;;;18.50;58.20;;;;;;4996907;28;1018;-68
2022/03/05 02:24:37;;;;;;;;;;;18.50;58.20;;;;;;5014296;28;833;-67
2022/03/05 02:27:03;;;;;;;;;;;18.50;58.30;;;;;;4997034;28;843;-68
2022/03/05 02:29:28;;;;;;;;;;;18.50;58.20;;;;;;5014524;28;1292;-68
2022/03/05 02:31:54;;;;;;;;;;;18.50;58.20;;;;;;4996909;28;1180;-68
2022/03/05 02:34:19;;;;;;;;;;;18.50;58.30;;;;;;5014586;28;1183;-67
2022/03/05 02:36:45;;;;;;;;;;;18.50;58.20;;;;;;4996813;28;1146;-67
2022/03/05 02:39:10;;;;;;;;;;;18.50;58.20;;;;;;5014181;28;1898;-67
2022/03/05 02:41:36;;;;;;;;;;;18.50;58.20;;;;;;5014062;28;836;-67
2022/03/05 02:44:02;;;;;;;;;;;18.50;58.30;;;;;;5014357;28;871;-67
2022/03/05 02:46:28;;;;;;;;;;;18.50;58.20;;;;;;5014402;28;800;-68
2022/03/05 02:48:53;;;;;;;;;;;18.50;58.20;;;;;;5014053;28;1204;-68
2022/03/05 02:51:20;;;;;;;;;;;18.50;58.20;;;;;;5014279;28;1050;-67
2022/03/05 02:53:46;;;;;;;;;;;18.50;58.20;;;;;;4996980;28;807;-67
2022/03/05 02:56:11;;;;;;;;;;;18.50;58.20;;;;;;4996532;28;1013;-68
2022/03/05 02:58:37;;;;;;;;;;;18.50;58.20;;;;;;5013697;28;1914;-67
2022/03/05 03:01:02;;;;;;;;;;;18.50;58.20;;;;;;4996593;28;1136;-67
2022/03/05 03:03:28;;;;;;;;;;;18.50;58.20;;;;;;5013855;28;1125;-67
2022/03/05 03:05:53;;;;;;;;;;;18.50;58.20;;;;;;5013975;28;773;-67
2022/03/05 03:08:19;;;;;;;;;;;18.50;58.20;;;;;;4996518;28;792;-68
2022/03/05 03:10:44;;;;;;;;;;;18.50;58.20;;;;;;5013413;28;1188;-67
2022/03/05 03:13:09;;;;;;;;;;;18.50;58.30;;;;;;5013898;28;1092;-67
2022/03/05 03:15:35;;;;;;;;;;;18.50;58.30;;;;;;5013878;28;1018;-68
2022/03/05 03:18:00;;;;;;;;;;;18.50;58.30;;;;;;5013826;28;1898;-68
2022/03/05 03:20:26;;;;;;;;;;;18.40;58.20;;;;;;5013441;28;1282;-67
2022/03/05 03:22:52;;;;;;;;;;;18.50;58.30;;;;;;5013900;28;796;-68
2022/03/05 03:25:17;;;;;;;;;;;18.50;58.30;;;;;;4996179;28;926;-68
2022/03/05 03:27:43;;;;;;;;;;;18.40;58.20;;;;;;5013782;28;895;-67
2022/03/05 03:30:09;;;;;;;;;;;18.50;58.30;;;;;;5013559;28;1194;-67
2022/03/05 03:32:34;;;;;;;;;;;18.50;58.30;;;;;;5013219;28;892;-67
2022/03/05 03:35:00;;;;;;;;;;;18.50;58.20;;;;;;5013722;28;1533;-66
2022/03/05 03:37:29;;;;;;;;;;;18.50;58.20;;;;;;5012952;28;939;-67
2022/03/05 03:39:57;;;;;;;;;;;18.50;58.20;;;;;;4996041;28;1927;-68
2022/03/05 03:42:23;;;;;;;;;;;18.50;58.20;;;;;;4979532;28;1225;-68
2022/03/05 03:44:48;;;;;;;;;;;18.50;58.20;;;;;;4995782;28;1065;-68
2022/03/05 03:47:14;;;;;;;;;;;18.50;58.10;;;;;;4995548;28;1449;-68
2022/03/05 03:49:39;;;;;;;;;;;18.50;58.10;;;;;;5012937;28;1223;-68
2022/03/05 03:52:05;;;;;;;;;;;18.50;58.10;;;;;;5012865;28;794;-68
2022/03/05 03:54:30;;;;;;;;;;;18.50;58.10;;;;;;4995211;28;1338;-68
2022/03/05 03:56:56;;;;;;;;;;;18.50;58.10;;;;;;5013050;28;884;-68
2022/03/05 03:59:22;;;;;;;;;;;18.50;58.10;;;;;;4995386;28;1973;-68
2022/03/05 04:01:47;;;;;;;;;;;18.50;58.00;;;;;;5013043;28;1527;-68
2022/03/05 04:04:13;;;;;;;;;;;18.50;58.00;;;;;;5012883;28;782;-68
2022/03/05 04:09:23;;;;;;;;;;;18.50;58.00;;;;;;5007094;28;1376;-68
2022/03/05 04:11:48;;;;;;;;;;;18.50;58.00;;;;;;5002439;28;1217;-68
2022/03/05 04:14:14;;;;;;;;;;;18.50;58.00;;;;;;4993700;28;1426;-67
2022/03/05 04:16:39;;;;;;;;;;;18.60;58.10;;;;;;4992844;28;2321;-69
2022/03/05 04:19:05;;;;;;;;;;;18.50;58.00;;;;;;5004085;28;1959;-67
2022/03/05 04:21:30;;;;;;;;;;;18.50;58.60;;;;;;4998785;28;1240;-67
2022/03/05 04:23:56;;;;;;;;;;;18.50;58.00;;;;;;4993621;28;1069;-67
2022/03/05 04:26:21;;;;;;;;;;;18.50;58.00;;;;;;4992362;28;1296;-68
2022/03/05 04:28:46;;;;;;;;;;;18.50;58.00;;;;;;4993697;28;1211;-67
2022/03/05 04:31:12;;;;;;;;;;;18.50;58.00;;;;;;4993663;28;692;-67
2022/03/05 04:33:37;;;;;;;;;;;18.50;58.00;;;;;;4993570;28;733;-68
2022/03/05 04:36:03;;;;;;;;;;;18.50;58.00;;;;;;4995580;28;1169;-68
2022/03/05 04:38:28;;;;;;;;;;;18.50;58.00;;;;;;5012891;28;1957;-68
2022/03/05 04:40:54;;;;;;;;;;;18.50;58.00;;;;;;5012916;28;879;-68
2022/03/05 04:43:19;;;;;;;;;;;18.50;58.00;;;;;;5013207;28;899;-67
2022/03/05 04:45:44;;;;;;;;;;;18.50;58.00;;;;;;5013191;28;1029;-68
2022/03/05 04:48:10;;;;;;;;;;;18.50;58.10;;;;;;5014866;28;977;-68
2022/03/05 04:50:35;;;;;;;;;;;18.50;58.10;;;;;;4999026;28;1298;-68
2022/03/05 04:53:01;;;;;;;;;;;18.50;58.10;;;;;;5016673;28;875;-67
2022/03/05 04:55:27;;;;;;;;;;;18.50;58.10;;;;;;5016723;28;808;-67
2022/03/05 04:57:52;;;;;;;;;;;18.50;58.10;;;;;;5016564;28;1914;-67
2022/03/05 05:00:18;;;;;;;;;;;18.50;58.10;;;;;;4999007;28;1304;-68
2022/03/05 05:02:43;;;;;;;;;;;18.50;58.20;;;;;;5016417;28;1227;-67
2022/03/05 05:05:09;;;;;;;;;;;18.50;58.20;;;;;;5016490;28;883;-68
2022/03/05 05:07:34;;;;;;;;;;;18.50;58.20;;;;;;5016007;28;800;-68
2022/03/05 05:10:00;;;;;;;;;;;18.50;58.20;;;;;;5015920;28;1198;-68
2022/03/05 05:12:25;;;;;;;;;;;18.50;58.20;;;;;;5016228;28;982;-67
2022/03/05 05:14:51;;;;;;;;;;;18.50;58.10;;;;;;4981043;28;1957;-69
2022/03/05 05:17:16;;;;;;;;;;;18.50;58.10;;;;;;5020903;28;1093;-65
2022/03/05 05:19:41;;;;;;;;;;;18.50;58.00;;;;;;5005609;28;1945;-67
2022/03/05 05:22:07;;;;;;;;;;;18.50;58.00;;;;;;5015057;28;934;-69
2022/03/05 05:24:33;;;;;;;;;;;18.60;57.90;;;;;;5013868;28;947;-68
2022/03/05 05:26:59;;;;;;;;;;;18.60;57.90;;;;;;5014194;28;847;-68
2022/03/05 05:29:24;;;;;;;;;;;18.60;57.70;;;;;;5014758;28;1229;-67
2022/03/05 05:31:50;;;;;;;;;;;18.60;57.60;;;;;;5015313;28;803;-68
2022/03/05 05:34:15;;;;;;;;;;;18.70;57.60;;;;;;5014531;28;1183;-69
2022/03/05 05:36:41;;;;;;;;;;;18.70;57.50;;;;;;4998415;28;773;-69
2022/03/05 05:39:06;;;;;;;;;;;18.80;57.50;;;;;;4992861;28;1960;-69
2022/03/05 05:41:32;;;;;;;;;;;18.80;57.40;;;;;;5014077;28;1178;-68
2022/03/05 05:43:58;;;;;;;;;;;18.80;57.40;;;;;;5014563;28;800;-68
2022/03/05 05:46:23;;;;;;;;;;;18.80;57.30;;;;;;5015374;28;702;-68
2022/03/05 05:48:48;;;;;;;;;;;18.80;57.30;;;;;;5015085;28;1285;-68
2022/03/05 05:51:14;;;;;;;;;;;18.80;57.20;;;;;;5014239;28;824;-68
2022/03/05 05:53:39;;;;;;;;;;;18.80;57.20;;;;;;5015461;28;796;-68
2022/03/05 05:56:05;;;;;;;;;;;18.80;57.10;;;;;;5015296;28;780;-68
2022/03/05 05:58:30;;;;;;;;;;;18.80;57.10;;;;;;5013795;28;1972;-68
2022/03/05 06:00:56;;;;;;;;;;;18.90;57.20;;;;;;5014373;28;1160;-68
2022/03/05 06:03:21;;;;;;;;;;;18.90;57.10;;;;;;5015145;28;1133;-71
2022/03/05 06:05:47;;;;;;;;;;;18.90;57.10;;;;;;5014883;28;900;-68
2022/03/05 06:08:12;;;;;;;;;;;18.90;57.10;;;;;;4997359;28;1458;-67
2022/03/05 06:10:38;;;;;;;;;;;18.90;57.10;;;;;;5014889;28;1221;-66
2022/03/05 06:13:03;;;;;;;;;;;18.90;57.10;;;;;;5015317;28;785;-69
2022/03/05 06:15:29;;;;;;;;;;;18.90;57.10;;;;;;5015002;28;786;-66
2022/03/05 06:17:57;;;;;;;;;;;18.90;57.00;;;;;;5014803;28;1902;-65
2022/03/05 06:20:23;;;;;;;;;;;18.90;57.00;;;;;;5014395;28;1216;-66
2022/03/05 06:22:48;;;;;;;;;;;18.90;57.00;;;;;;4997327;28;975;-65
2022/03/05 06:25:14;;;;;;;;;;;18.90;57.00;;;;;;5014779;28;1003;-67
2022/03/05 06:27:39;;;;;;;;;;;18.90;56.90;;;;;;5014790;28;812;-69
2022/03/05 06:30:05;;;;;;;;;;;18.90;56.90;;;;;;4997057;28;1294;-67
2022/03/05 06:32:30;;;;;;;;;;;19.00;56.90;;;;;;4997058;28;824;-63
2022/03/05 06:34:56;;;;;;;;;;;18.90;56.80;;;;;;5014351;28;1175;-63
2022/03/05 06:37:21;;;;;;;;;;;18.90;56.80;;;;;;5014632;28;1013;-64
2022/03/05 06:39:48;;;;;;;;;;;19.00;56.80;;;;;;5014075;28;1910;-67
2022/03/05 06:42:14;;;;;;;;;;;19.00;56.90;;;;;;5014427;28;878;-66
2022/03/05 06:44:39;;;;;;;;;;;18.90;56.80;;;;;;5014401;28;768;-67
2022/03/05 06:47:05;;;;;;;;;;;19.00;56.90;;;;;;5014445;28;732;-66
2022/03/05 06:49:30;;;;;;;;;;;18.90;56.80;;;;;;5013925;28;1292;-67
2022/03/05 06:51:56;;;;;;;;;;;19.00;56.90;;;;;;5014285;28;931;-68
2022/03/05 06:54:21;;;;;;;;;;;19.00;56.80;;;;;;5014151;28;1021;-66
2022/03/05 06:56:47;;;;;;;;;;;19.00;56.90;;;;;;4996726;28;951;-67
2022/03/05 06:59:12;;;;;;;;;;;19.00;56.80;;;;;;5013867;28;1906;-66
2022/03/05 07:01:37;;;;;;;;;;;19.00;57.40;;;;;;5013923;28;1239;-66
2022/03/05 07:04:03;;;;;;;;;;;19.00;56.90;;;;;;5014046;28;895;-65
2022/03/05 07:06:28;;;;;;;;;;;19.00;56.80;;;;;;5013895;28;1006;-65
2022/03/05 07:08:54;;;;;;;;;;;19.00;56.80;;;;;;5013713;28;1188;-65
2022/03/05 07:11:19;;;;;;;;;;;19.00;56.80;;;;;;5013705;28;983;-65
2022/03/05 07:13:44;;;;;;;;;;;19.00;56.80;;;;;;5014107;28;706;-64
2022/03/05 07:16:10;;;;;;;;;;;19.00;56.80;;;;;;5013857;28;722;-66
2022/03/05 07:18:35;;;;;;;;;;;19.00;56.80;;;;;;5013464;28;1897;-67
2022/03/05 07:21:01;;;;;;;;;;;19.00;56.90;;;;;;5007969;28;1643;-73
2022/03/05 07:23:27;;;;;;;;;;;19.00;56.80;;;;;;5010383;28;1832;-71
2022/03/05 07:25:52;;;;;;;;;;;18.90;56.80;;;;;;5013569;28;1229;-73
2022/03/05 07:28:18;;;;;;;;;;;19.00;56.80;;;;;;5013645;28;1193;-71
2022/03/05 07:30:43;;;;;;;;;;;18.90;56.80;;;;;;5013136;28;1192;-73
2022/03/05 07:33:09;;;;;;;;;;;19.00;56.90;;;;;;5013521;28;895;-71
2022/03/05 07:35:34;;;;;;;;;;;19.00;56.90;;;;;;5005707;28;1120;-68
2022/03/05 07:38:00;;;;;;;;;;;19.00;56.90;;;;;;5013137;28;1898;-71
2022/03/05 07:40:26;;;;;;;;;;;19.00;56.90;;;;;;5013031;28;1304;-71
2022/03/05 07:42:52;;;;;;;;;;;19.00;56.90;;;;;;5013274;28;808;-67
2022/03/05 07:45:17;;;;;;;;;;;19.00;56.80;;;;;;5013507;28;779;-72
2022/03/05 07:47:43;;;;;;;;;;;18.90;56.80;;;;;;4995706;28;892;-73
2022/03/05 07:50:08;;;;;;;;;;;19.00;56.80;;;;;;4995106;28;1209;-72
2022/03/05 07:52:34;;;;;;;;;;;19.00;56.90;;;;;;4995485;28;1014;-73
2022/03/05 07:54:59;;;;;;;;;;;19.00;56.90;;;;;;5013210;28;904;-71
2022/03/05 07:57:24;;;;;;;;;;;19.00;56.90;;;;;;5013338;28;943;-66
2022/03/05 07:59:50;;;;;;;;;;;18.90;56.80;;;;;;5012767;28;1915;-66
2022/03/05 08:02:16;;;;;;;;;;;18.90;56.80;;;;;;5012819;28;1140;-66
2022/03/05 08:04:41;;;;;;;;;;;18.90;56.80;;;;;;5009157;28;2180;-68
2022/03/05 08:07:07;;;;;;;;;;;18.90;56.80;;;;;;5019875;28;1268;-67
2022/03/05 08:09:34;;;;;;;;;;;18.90;56.80;;;;;;5012766;28;1263;-67
2022/03/05 08:11:59;;;;;;;;;;;18.90;56.80;;;;;;5013131;28;800;-67
2022/03/05 08:14:25;;;;;;;;;;;18.90;56.80;;;;;;5011809;28;883;-67
2022/03/05 08:16:50;;;;;;;;;;;19.00;56.90;;;;;;4995392;28;2159;-66
2022/03/05 08:19:16;;;;;;;;;;;19.10;56.90;;;;;;5011397;28;1902;-66
2022/03/05 08:21:43;;;;;;;;;;;19.10;56.70;;;;;;5012864;28;1088;-66
2022/03/05 08:24:08;;;;;;;;;;;19.30;56.60;;;;;;5016664;28;1314;-65
2022/03/05 08:26:34;;;;;;;;;;;19.40;56.40;;;;;;5016809;28;1168;-65
2022/03/05 08:28:59;;;;;;;;;;;19.50;56.20;;;;;;5015403;28;1307;-65
2022/03/05 08:31:25;;;;;;;;;;;19.70;55.90;;;;;;5017002;28;753;-66
2022/03/05 08:33:50;;;;;;;;;;;19.80;55.60;;;;;;5016778;28;858;-66
2022/03/05 08:36:16;;;;;;;;;;;19.90;55.30;;;;;;5016799;28;1155;-67
2022/03/05 08:38:41;;;;;;;;;;;20.10;55.10;;;;;;5016317;28;1935;-66
2022/03/05 08:41:06;;;;;;;;;;;20.20;54.80;;;;;;5016839;28;855;-66
2022/03/05 08:43:32;;;;;;;;;;;20.30;54.50;;;;;;5016631;28;808;-66
2022/03/05 08:45:57;;;;;;;;;;;20.40;54.20;;;;;;4999161;28;777;-66
2022/03/05 08:48:23;;;;;;;;;;;20.50;54.00;;;;;;5016345;28;835;-66
2022/03/05 08:50:48;;;;;;;;;;;20.60;53.80;;;;;;5016278;28;1263;-66
2022/03/05 08:53:14;;;;;;;;;;;20.70;53.60;;;;;;5016355;28;1111;-66
2022/03/05 08:55:39;;;;;;;;;;;20.70;53.40;;;;;;4982745;28;1317;-66
2022/03/05 08:58:05;;;;;;;;;;;20.80;53.30;;;;;;5016370;28;1961;-66
2022/03/05 09:00:30;;;;;;;;;;;20.80;53.20;;;;;;5016106;28;1286;-67
2022/03/05 09:02:56;;;;;;;;;;;20.90;53.10;;;;;;5016069;28;1191;-66
2022/03/05 09:05:21;;;;;;;;;;;20.90;53.00;;;;;;4982537;28;1037;-66
2022/03/05 09:07:46;;;;;;;;;;;20.90;53.00;;;;;;5016402;28;823;-66
2022/03/05 09:10:12;;;;;;;;;;;20.90;52.90;;;;;;5016074;28;1227;-66
2022/03/05 09:12:38;;;;;;;;;;;20.90;52.90;;;;;;4999012;28;816;-66
2022/03/05 09:15:04;;;;;;;;;;;21.00;53.00;;;;;;5016129;28;687;-67
2022/03/05 09:17:29;;;;;;;;;;;20.90;53.00;;;;;;5015813;28;931;-65
2022/03/05 09:19:54;;;;;;;;;;;20.90;53.00;;;;;;5015681;28;1961;-69
2022/03/05 09:22:20;;;;;;;;;;;20.90;53.10;;;;;;4998430;28;788;-66
2022/03/05 09:24:46;;;;;;;;;;;20.90;53.20;;;;;;4998398;28;844;-66
2022/03/05 09:27:11;;;;;;;;;;;20.90;53.20;;;;;;5015913;28;922;-66
2022/03/05 09:29:37;;;;;;;;;;;20.90;53.50;;;;;;5015433;28;1196;-66
2022/03/05 09:32:02;;;;;;;;;;;20.90;53.30;;;;;;5015524;28;956;-67
2022/03/05 09:34:28;;;;;;;;;;;20.90;53.20;;;;;;4997274;28;1615;-64
2022/03/05 09:36:54;;;;;;;;;;;20.90;53.30;;;;;;5007217;28;1280;-66
2022/03/05 09:39:19;;;;;;;;;;;20.90;53.30;;;;;;5028681;22;2049;-69
2022/03/05 09:41:44;;;;;;;;;;;20.90;53.20;;;;;;5010358;28;1395;-68
2022/03/05 09:44:10;;;;;;;;;;;20.80;53.30;;;;;;5013733;28;1255;-68
2022/03/05 09:46:35;;;;;;;;;;;20.80;53.30;;;;;;5014569;28;1252;-68
2022/03/05 09:49:01;;;;;;;;;;;20.80;53.30;;;;;;5030471;28;1285;-69
2022/03/05 09:51:27;;;;;;;;;;;20.80;53.40;;;;;;5014234;28;1441;-69
2022/03/05 09:53:53;;;;;;;;;;;20.80;53.40;;;;;;5015450;28;776;-67
2022/03/05 09:56:18;;;;;;;;;;;20.80;53.50;;;;;;5010550;28;1502;-67
2022/03/05 09:58:44;;;;;;;;;;;20.70;53.50;;;;;;5014788;28;1967;-67
2022/03/05 10:01:09;;;;;;;;;;;20.70;53.60;;;;;;5014788;28;1497;-67
2022/03/05 10:03:51;;;;;;;;;;;20.70;53.60;;;;;;5015142;28;1393;-67
2022/03/05 10:06:20;;;;;;;;;;;20.70;53.70;;;;;;5015120;28;851;-67
2022/03/05 10:08:46;;;;;;;;;;;20.60;53.70;;;;;;5014864;28;1303;-67
2022/03/05 10:11:12;;;;;;;;;;;20.60;53.80;;;;;;5030316;28;1229;-67
2022/03/05 10:13:38;;;;;;;;;;;20.60;53.80;;;;;;5030170;28;867;-67
2022/03/05 10:16:04;;;;;;;;;;;20.60;53.90;;;;;;5030192;28;902;-67
2022/03/05 10:18:30;;;;;;;;;;;20.50;53.90;;;;;;5013249;28;1898;-67
2022/03/05 10:20:56;;;;;;;;;;;20.50;54.00;;;;;;5030113;28;1196;-67
2022/03/05 10:23:21;;;;;;;;;;;20.60;54.10;;;;;;5030073;28;1659;-66
2022/03/05 10:25:51;;;;;;;;;;;20.50;54.10;;;;;;5014718;28;863;-67
2022/03/05 10:28:17;;;;;;;;;;;20.50;54.20;;;;;;5014540;28;1021;-67
2022/03/05 10:30:44;;;;;;;;;;;20.50;54.30;;;;;;5029498;28;1192;-67
2022/03/05 10:33:22;;;;;;;;;;;20.40;54.30;;;;;;5029898;28;819;-67
2022/03/05 10:35:47;;;;;;;;;;;20.40;54.30;;;;;;5014612;28;1489;-67
2022/03/05 10:38:12;;;;;;;;;;;20.40;54.40;;;;;;5029912;28;1890;-67
2022/03/05 10:40:38;;;;;;;;;;;20.40;54.40;;;;;;5013949;28;1220;-67
2022/03/05 10:43:04;;;;;;;;;;;20.40;54.40;;;;;;5014392;28;770;-67
2022/03/05 10:45:30;;;;;;;;;;;20.40;54.40;;;;;;5012699;28;1171;-67
2022/03/05 10:47:56;;;;;;;;;;;20.30;54.40;;;;;;5029622;28;1372;-67
2022/03/05 10:50:22;;;;;;;;;;;20.30;54.50;;;;;;5029158;28;1248;-67
2022/03/05 10:52:48;;;;;;;;;;;20.30;54.60;;;;;;5014387;28;828;-67
2022/03/05 10:55:17;;;;;;;;;;;20.30;54.60;;;;;;5014328;28;1071;-67
2022/03/05 10:57:55;;;;;;;;;;;20.30;54.60;;;;;;5014041;28;953;-67
2022/03/05 11:00:21;;;;;;;;;;;20.20;54.60;;;;;;5029017;28;1914;-66
2022/03/05 11:02:47;;;;;;;;;;;20.20;54.70;;;;;;5029150;28;1476;-66
2022/03/05 11:05:12;;;;;;;;;;;20.20;54.80;;;;;;5014155;28;1096;-66
2022/03/05 11:07:37;;;;;;;;;;;20.20;54.80;;;;;;5013902;28;907;-67
2022/03/05 11:10:03;;;;;;;;;;;20.20;54.90;;;;;;5012184;28;1274;-67
2022/03/05 11:12:29;;;;;;;;;;;20.20;54.90;;;;;;5029211;28;824;-67
2022/03/05 11:14:54;;;;;;;;;;;20.10;54.90;;;;;;5012500;28;1093;-67
2022/03/05 11:17:20;;;;;;;;;;;20.10;54.90;;;;;;5013545;28;1487;-68
2022/03/05 11:19:45;;;;;;;;;;;20.10;55.10;;;;;;5010725;28;1891;-69
2022/03/05 11:22:11;;;;;;;;;;;20.10;55.10;;;;;;5012364;28;1252;-67
2022/03/05 11:24:40;;;;;;;;;;;20.10;55.10;;;;;;4994563;28;1314;-68
2022/03/05 11:27:06;;;;;;;;;;;20.10;55.10;;;;;;5009957;28;1888;-66
2022/03/05 11:29:50;;;;;;;;;;;20.10;55.10;;;;;;5027800;28;1711;-66
2022/03/05 11:32:16;;;;;;;;;;;20.10;55.10;;;;;;5012683;28;1595;-66
2022/03/05 11:34:48;;;;;;;;;;;20.10;55.10;;;;;;5012658;28;1445;-65
2022/03/05 11:37:17;;;;;;;;;;;20.10;55.10;;;;;;5012571;28;1063;-66
2022/03/05 11:39:42;;;;;;;;;;;20.10;55.00;;;;;;5011830;28;1894;-67
2022/03/05 11:42:09;;;;;;;;;;;20.20;55.00;;;;;;5012472;28;1013;-67
2022/03/05 11:44:39;;;;;;;;;;;20.20;55.00;;;;;;5012444;28;1298;-67
2022/03/05 11:47:23;;;;;;;;;;;20.20;54.90;;;;;;5010986;28;1199;-66
2022/03/05 11:50:00;;;;;;;;;;;20.20;54.80;;;;;;5011802;28;1190;-67
2022/03/05 11:52:38;;;;;;;;;;;20.20;54.80;;;;;;5011982;28;914;-66
2022/03/05 11:55:16;;;;;;;;;;;20.20;54.80;;;;;;5009789;28;2346;-68
2022/03/05 11:57:42;;;;;;;;;;;20.20;54.70;;;;;;5022794;28;1880;-70
2022/03/05 12:00:08;;;;;;;;;;;20.30;54.80;;;;;;5027068;28;1898;-69
2022/03/05 12:02:38;;;;;;;;;;;20.20;54.70;;;;;;5012197;28;1585;-70
2022/03/05 12:05:03;;;;;;;;;;;20.20;54.70;;;;;;5012427;28;835;-69
2022/03/05 12:07:34;;;;;;;;;;;20.30;54.70;;;;;;5012125;28;1073;-70
2022/03/05 12:10:03;;;;;;;;;;;20.20;55.30;;;;;;5010983;28;1261;-69
2022/03/05 12:12:28;;;;;;;;;;;20.30;54.70;;;;;;5012046;28;919;-69
2022/03/05 12:15:06;;;;;;;;;;;20.20;54.70;;;;;;5027257;28;1414;-69
2022/03/05 12:17:33;;;;;;;;;;;20.20;54.70;;;;;;5012139;28;811;-70
2022/03/05 12:19:59;;;;;;;;;;;20.20;54.70;;;;;;5011569;28;1902;-70
2022/03/05 12:22:24;;;;;;;;;;;20.20;54.80;;;;;;5010921;28;1581;-70
2022/03/05 12:24:49;;;;;;;;;;;20.20;54.80;;;;;;5011992;28;1216;-69
2022/03/05 12:27:15;;;;;;;;;;;20.20;54.80;;;;;;5012190;28;1255;-70
2022/03/05 12:29:47;;;;;;;;;;;20.20;54.80;;;;;;5011954;28;1363;-70
2022/03/05 12:32:13;;;;;;;;;;;20.20;54.80;;;;;;5011807;28;1319;-70
2022/03/05 12:34:39;;;;;;;;;;;20.20;55.40;;;;;;5011533;28;1394;-69
2022/03/05 12:37:04;;;;;;;;;;;20.20;54.90;;;;;;5012811;28;820;-69
2022/03/05 12:39:30;;;;;;;;;;;20.20;54.90;;;;;;5027293;28;1890;-69
2022/03/05 12:41:55;;;;;;;;;;;20.20;54.90;;;;;;5027960;28;832;-69
2022/03/05 12:44:21;;;;;;;;;;;20.20;54.90;;;;;;5012817;28;828;-69
2022/03/05 12:46:46;;;;;;;;;;;20.20;55.00;;;;;;5028162;28;891;-68
2022/03/05 12:49:11;;;;;;;;;;;20.20;55.00;;;;;;5027513;28;1267;-69
2022/03/05 12:51:37;;;;;;;;;;;20.10;55.00;;;;;;5012656;28;1077;-68
2022/03/05 12:54:03;;;;;;;;;;;20.10;55.00;;;;;;5012550;28;1263;-67
2022/03/05 12:56:28;;;;;;;;;;;20.10;55.10;;;;;;5024608;28;1152;-67
2022/03/05 12:58:55;;;;;;;;;;;20.10;55.10;;;;;;5011882;28;1902;-67
2022/03/05 13:01:21;;;;;;;;;;;20.10;55.20;;;;;;5027515;28;1194;-66
2022/03/05 13:03:46;;;;;;;;;;;20.00;55.20;;;;;;5012390;28;1227;-68
2022/03/05 13:06:12;;;;;;;;;;;20.00;55.20;;;;;;5012044;28;1165;-66
2022/03/05 13:08:38;;;;;;;;;;;20.00;55.30;;;;;;5011002;28;1127;-67
2022/03/05 13:11:07;;;;;;;;;;;20.00;55.30;;;;;;5012903;28;1232;-68
2022/03/05 13:13:36;;;;;;;;;;;20.00;55.30;;;;;;5015320;28;843;-68
2022/03/05 13:16:02;;;;;;;;;;;19.90;55.30;;;;;;5027886;28;1100;-68
2022/03/05 13:18:27;;;;;;;;;;;19.90;55.40;;;;;;5013743;28;1894;-68
2022/03/05 13:20:53;;;;;;;;;;;19.90;55.40;;;;;;5023243;28;2517;-68
2022/03/05 13:23:18;;;;;;;;;;;19.90;55.40;;;;;;5015164;28;1205;-68
2022/03/05 13:25:45;;;;;;;;;;;19.90;55.50;;;;;;5015869;28;1254;-68
2022/03/05 13:28:17;;;;;;;;;;;19.90;55.40;;;;;;5031148;28;742;-68
2022/03/05 13:30:43;;;;;;;;;;;19.90;55.50;;;;;;5030777;28;1228;-68
2022/03/05 13:33:09;;;;;;;;;;;19.90;55.50;;;;;;5015709;28;812;-68
2022/03/05 13:35:41;;;;;;;;;;;19.90;55.50;;;;;;5015379;28;1641;-68
2022/03/05 13:38:06;;;;;;;;;;;19.90;55.50;;;;;;5015481;28;1088;-68
2022/03/05 13:40:32;;;;;;;;;;;19.90;55.50;;;;;;5030168;28;1959;-68
2022/03/05 13:42:57;;;;;;;;;;;19.90;55.60;;;;;;5030719;28;910;-68
2022/03/05 13:45:26;;;;;;;;;;;19.90;55.60;;;;;;5030657;28;803;-68
2022/03/05 13:47:52;;;;;;;;;;;19.90;55.60;;;;;;5030556;28;713;-68
2022/03/05 13:50:18;;;;;;;;;;;19.90;55.60;;;;;;5039399;28;1302;-68
2022/03/05 13:53:10;;;;;;;;;;;19.90;55.60;;;;;;5035069;28;804;-68
2022/03/05 13:55:36;;;;;;;;;;;19.80;55.60;;;;;;5034142;28;1342;-68
2022/03/05 13:58:01;;;;;;;;;;;19.80;55.60;;;;;;5029957;28;1278;-68
2022/03/05 14:00:27;;;;;;;;;;;19.80;55.60;;;;;;5014761;28;1974;-68
2022/03/05 14:02:53;;;;;;;;;;;19.80;55.70;;;;;;5028878;28;1194;-68
2022/03/05 14:05:21;;;;;;;;;;;19.80;55.70;;;;;;5013909;28;883;-68
2022/03/05 14:07:47;;;;;;;;;;;19.80;55.70;;;;;;5014809;28;862;-68
2022/03/05 14:10:13;;;;;;;;;;;19.80;55.80;;;;;;5014714;28;1197;-68
2022/03/05 14:12:39;;;;;;;;;;;19.80;55.80;;;;;;5015020;28;1021;-68
2022/03/05 14:15:05;;;;;;;;;;;19.70;55.80;;;;;;5014881;28;1054;-68
2022/03/05 14:17:31;;;;;;;;;;;19.70;55.80;;;;;;5011745;28;2101;-67
2022/03/05 14:20:06;;;;;;;;;;;19.70;55.80;;;;;;5012662;28;1961;-68
2022/03/05 14:22:35;;;;;;;;;;;19.70;55.80;;;;;;5006075;28;1713;-68
2022/03/05 14:25:00;;;;;;;;;;;19.70;55.80;;;;;;5025063;28;1732;-68
2022/03/05 14:27:26;;;;;;;;;;;19.70;55.90;;;;;;5014308;28;1433;-68
2022/03/05 14:29:51;;;;;;;;;;;19.70;55.90;;;;;;5029269;28;1284;-69